sensor_id;sensor_type;location;lat;lon;timestamp;P1;durP1;ratioP1;P2;durP2;ratioP2
63346;SDS011;49472;49.880;8.650;2022-07-29T00:02:05;15.00;;;12.02;;
63346;SDS011;49472;49.880;8.650;2022-07-29T00:04:30;12.77;;;11.52;;
63346;SDS011;49472;49.880;8.650;2022-07-29T00:06:55;13.20;;;12.15;;
63346;SDS011;49472;49.880;8.650;2022-07-29T00:09:20;12.77;;;11.63;;
63346;SDS011;49472;49.880;8.650;2022-07-29T00:11:45;13.00;;;12.05;;
63346;SDS011;49472;49.880;8.650;2022-07-29T00:14:11;12.90;;;12.00;;
63346;SDS011;49472;49.880;8.650;2022-07-29T00:16:36;13.27;;;12.23;;
63346;SDS011;49472;49.880;8.650;2022-07-29T00:19:02;12.77;;;11.73;;
63346;SDS011;49472;49.880;8.650;2022-07-29T00:21:27;12.70;;;11.55;;
63346;SDS011;49472;49.880;8.650;2022-07-29T00:23:52;13.00;;;12.00;;
63346;SDS011;49472;49.880;8.650;2022-07-29T00:26:18;11.98;;;11.20;;
63346;SDS011;49472;49.880;8.650;2022-07-29T00:28:43;12.13;;;11.43;;
63346;SDS011;49472;49.880;8.650;2022-07-29T00:31:08;12.60;;;11.77;;
63346;SDS011;49472;49.880;8.650;2022-07-29T00:33:33;13.10;;;11.85;;
63346;SDS011;49472;49.880;8.650;2022-07-29T00:35:58;13.15;;;12.13;;
63346;SDS011;49472;49.880;8.650;2022-07-29T00:38:24;14.32;;;12.95;;
63346;SDS011;49472;49.880;8.650;2022-07-29T00:40:49;14.63;;;13.32;;
63346;SDS011;49472;49.880;8.650;2022-07-29T00:43:14;15.70;;;14.10;;
63346;SDS011;49472;49.880;8.650;2022-07-29T00:45:40;18.50;;;14.63;;
63346;SDS011;49472;49.880;8.650;2022-07-29T00:48:06;20.75;;;13.32;;
63346;SDS011;49472;49.880;8.650;2022-07-29T00:50:33;21.15;;;12.43;;
63346;SDS011;49472;49.880;8.650;2022-07-29T00:52:58;13.73;;;12.57;;
63346;SDS011;49472;49.880;8.650;2022-07-29T00:55:24;14.57;;;13.13;;
63346;SDS011;49472;49.880;8.650;2022-07-29T00:57:49;13.15;;;12.05;;
63346;SDS011;49472;49.880;8.650;2022-07-29T01:00:16;14.68;;;13.30;;
63346;SDS011;49472;49.880;8.650;2022-07-29T01:02:42;13.70;;;12.50;;
63346;SDS011;49472;49.880;8.650;2022-07-29T01:05:07;12.70;;;11.70;;
63346;SDS011;49472;49.880;8.650;2022-07-29T01:07:36;13.10;;;11.90;;
63346;SDS011;49472;49.880;8.650;2022-07-29T01:10:04;12.90;;;11.80;;
63346;SDS011;49472;49.880;8.650;2022-07-29T01:12:30;13.18;;;11.90;;
63346;SDS011;49472;49.880;8.650;2022-07-29T01:14:59;12.98;;;11.98;;
63346;SDS011;49472;49.880;8.650;2022-07-29T01:23:15;12.63;;;11.52;;
63346;SDS011;49472;49.880;8.650;2022-07-29T01:31:03;14.68;;;12.30;;
63346;SDS011;49472;49.880;8.650;2022-07-29T01:33:29;14.00;;;12.32;;
63346;SDS011;49472;49.880;8.650;2022-07-29T01:36:14;13.30;;;12.18;;
63346;SDS011;49472;49.880;8.650;2022-07-29T01:38:41;13.15;;;11.48;;
63346;SDS011;49472;49.880;8.650;2022-07-29T01:41:09;15.57;;;11.70;;
63346;SDS011;49472;49.880;8.650;2022-07-29T01:43:41;12.60;;;11.63;;
63346;SDS011;49472;49.880;8.650;2022-07-29T01:46:09;12.88;;;11.35;;
63346;SDS011;49472;49.880;8.650;2022-07-29T01:48:46;12.13;;;11.32;;
63346;SDS011;49472;49.880;8.650;2022-07-29T01:51:19;13.88;;;12.38;;
63346;SDS011;49472;49.880;8.650;2022-07-29T01:53:55;13.60;;;12.23;;
63346;SDS011;49472;49.880;8.650;2022-07-29T01:56:24;13.38;;;12.02;;
63346;SDS011;49472;49.880;8.650;2022-07-29T01:58:50;12.80;;;11.80;;
63346;SDS011;49472;49.880;8.650;2022-07-29T02:01:16;12.10;;;11.20;;
63346;SDS011;49472;49.880;8.650;2022-07-29T02:03:43;13.30;;;11.93;;
63346;SDS011;49472;49.880;8.650;2022-07-29T02:06:08;13.68;;;12.48;;
63346;SDS011;49472;49.880;8.650;2022-07-29T02:08:34;13.63;;;12.57;;
63346;SDS011;49472;49.880;8.650;2022-07-29T02:11:01;13.75;;;12.50;;
63346;SDS011;49472;49.880;8.650;2022-07-29T02:13:28;12.55;;;11.55;;
63346;SDS011;49472;49.880;8.650;2022-07-29T02:15:54;13.75;;;12.45;;
63346;SDS011;49472;49.880;8.650;2022-07-29T02:18:20;13.95;;;12.77;;
63346;SDS011;49472;49.880;8.650;2022-07-29T02:20:48;13.90;;;12.30;;
63346;SDS011;49472;49.880;8.650;2022-07-29T02:23:14;17.60;;;13.15;;
63346;SDS011;49472;49.880;8.650;2022-07-29T02:25:41;13.15;;;12.25;;
63346;SDS011;49472;49.880;8.650;2022-07-29T02:28:06;12.70;;;11.60;;
63346;SDS011;49472;49.880;8.650;2022-07-29T02:30:32;13.45;;;12.38;;
63346;SDS011;49472;49.880;8.650;2022-07-29T02:32:58;14.23;;;11.85;;
63346;SDS011;49472;49.880;8.650;2022-07-29T02:35:23;15.80;;;13.00;;
63346;SDS011;49472;49.880;8.650;2022-07-29T02:37:49;13.40;;;12.15;;
63346;SDS011;49472;49.880;8.650;2022-07-29T02:40:36;12.70;;;11.90;;
63346;SDS011;49472;49.880;8.650;2022-07-29T02:43:02;13.52;;;12.43;;
63346;SDS011;49472;49.880;8.650;2022-07-29T02:45:28;14.10;;;12.50;;
63346;SDS011;49472;49.880;8.650;2022-07-29T02:47:54;13.57;;;12.05;;
63346;SDS011;49472;49.880;8.650;2022-07-29T02:50:24;15.25;;;11.98;;
63346;SDS011;49472;49.880;8.650;2022-07-29T02:55:19;14.10;;;12.40;;
63346;SDS011;49472;49.880;8.650;2022-07-29T02:57:49;14.02;;;12.68;;
63346;SDS011;49472;49.880;8.650;2022-07-29T03:00:16;13.68;;;12.27;;
63346;SDS011;49472;49.880;8.650;2022-07-29T03:02:44;13.02;;;12.05;;
63346;SDS011;49472;49.880;8.650;2022-07-29T03:05:13;13.18;;;12.18;;
63346;SDS011;49472;49.880;8.650;2022-07-29T03:07:40;18.13;;;12.80;;
63346;SDS011;49472;49.880;8.650;2022-07-29T03:10:06;13.45;;;12.00;;
63346;SDS011;49472;49.880;8.650;2022-07-29T03:12:33;14.18;;;13.07;;
63346;SDS011;49472;49.880;8.650;2022-07-29T03:14:59;14.15;;;13.05;;
63346;SDS011;49472;49.880;8.650;2022-07-29T03:17:25;13.80;;;12.80;;
63346;SDS011;49472;49.880;8.650;2022-07-29T03:19:51;13.52;;;12.35;;
63346;SDS011;49472;49.880;8.650;2022-07-29T03:22:16;12.55;;;11.55;;
63346;SDS011;49472;49.880;8.650;2022-07-29T03:24:41;17.13;;;12.38;;
63346;SDS011;49472;49.880;8.650;2022-07-29T03:27:07;13.30;;;12.10;;
63346;SDS011;49472;49.880;8.650;2022-07-29T03:29:32;14.40;;;13.20;;
63346;SDS011;49472;49.880;8.650;2022-07-29T03:31:57;12.63;;;11.63;;
63346;SDS011;49472;49.880;8.650;2022-07-29T03:34:23;12.82;;;11.88;;
63346;SDS011;49472;49.880;8.650;2022-07-29T03:36:48;13.40;;;12.55;;
63346;SDS011;49472;49.880;8.650;2022-07-29T03:39:18;13.18;;;12.10;;
63346;SDS011;49472;49.880;8.650;2022-07-29T03:41:44;13.50;;;12.10;;
63346;SDS011;49472;49.880;8.650;2022-07-29T03:44:10;12.57;;;11.52;;
63346;SDS011;49472;49.880;8.650;2022-07-29T03:46:37;14.70;;;12.80;;
63346;SDS011;49472;49.880;8.650;2022-07-29T03:49:04;15.18;;;12.57;;
63346;SDS011;49472;49.880;8.650;2022-07-29T03:51:29;13.68;;;12.57;;
63346;SDS011;49472;49.880;8.650;2022-07-29T03:53:55;13.48;;;12.38;;
63346;SDS011;49472;49.880;8.650;2022-07-29T03:56:21;13.67;;;12.13;;
63346;SDS011;49472;49.880;8.650;2022-07-29T03:58:50;12.70;;;11.77;;
63346;SDS011;49472;49.880;8.650;2022-07-29T04:01:16;13.80;;;12.68;;
63346;SDS011;49472;49.880;8.650;2022-07-29T04:03:43;13.90;;;12.80;;
63346;SDS011;49472;49.880;8.650;2022-07-29T04:06:10;16.92;;;12.85;;
63346;SDS011;49472;49.880;8.650;2022-07-29T04:08:35;14.05;;;12.82;;
63346;SDS011;49472;49.880;8.650;2022-07-29T04:11:01;13.50;;;12.32;;
63346;SDS011;49472;49.880;8.650;2022-07-29T04:13:26;19.42;;;12.27;;
63346;SDS011;49472;49.880;8.650;2022-07-29T04:15:52;13.25;;;12.05;;
63346;SDS011;49472;49.880;8.650;2022-07-29T04:18:17;13.80;;;12.55;;
63346;SDS011;49472;49.880;8.650;2022-07-29T04:20:42;13.43;;;12.23;;
63346;SDS011;49472;49.880;8.650;2022-07-29T04:23:07;13.57;;;12.32;;
63346;SDS011;49472;49.880;8.650;2022-07-29T04:25:33;13.45;;;12.10;;
63346;SDS011;49472;49.880;8.650;2022-07-29T04:27:58;15.35;;;11.98;;
63346;SDS011;49472;49.880;8.650;2022-07-29T04:30:26;15.30;;;12.83;;
63346;SDS011;49472;49.880;8.650;2022-07-29T04:32:52;13.68;;;12.25;;
63346;SDS011;49472;49.880;8.650;2022-07-29T04:35:17;13.40;;;12.48;;
63346;SDS011;49472;49.880;8.650;2022-07-29T04:37:43;13.40;;;12.40;;
63346;SDS011;49472;49.880;8.650;2022-07-29T04:40:08;13.60;;;12.60;;
63346;SDS011;49472;49.880;8.650;2022-07-29T04:42:34;23.63;;;13.02;;
63346;SDS011;49472;49.880;8.650;2022-07-29T04:44:59;13.13;;;12.05;;
63346;SDS011;49472;49.880;8.650;2022-07-29T04:47:24;14.48;;;13.10;;
63346;SDS011;49472;49.880;8.650;2022-07-29T04:49:49;13.95;;;12.38;;
63346;SDS011;49472;49.880;8.650;2022-07-29T04:52:14;14.50;;;13.18;;
63346;SDS011;49472;49.880;8.650;2022-07-29T04:54:40;14.13;;;12.90;;
63346;SDS011;49472;49.880;8.650;2022-07-29T04:57:05;14.03;;;12.67;;
63346;SDS011;49472;49.880;8.650;2022-07-29T04:59:30;13.13;;;11.90;;
63346;SDS011;49472;49.880;8.650;2022-07-29T05:01:55;13.23;;;12.05;;
63346;SDS011;49472;49.880;8.650;2022-07-29T05:04:20;15.40;;;12.70;;
63346;SDS011;49472;49.880;8.650;2022-07-29T05:06:46;14.80;;;13.57;;
63346;SDS011;49472;49.880;8.650;2022-07-29T05:09:11;14.05;;;12.70;;
63346;SDS011;49472;49.880;8.650;2022-07-29T05:11:36;18.40;;;13.23;;
63346;SDS011;49472;49.880;8.650;2022-07-29T05:14:01;14.35;;;13.02;;
63346;SDS011;49472;49.880;8.650;2022-07-29T05:16:26;15.02;;;13.70;;
63346;SDS011;49472;49.880;8.650;2022-07-29T05:18:52;15.18;;;13.35;;
63346;SDS011;49472;49.880;8.650;2022-07-29T05:21:17;14.13;;;13.05;;
63346;SDS011;49472;49.880;8.650;2022-07-29T05:23:43;14.75;;;13.13;;
63346;SDS011;49472;49.880;8.650;2022-07-29T05:26:08;13.55;;;12.23;;
63346;SDS011;49472;49.880;8.650;2022-07-29T05:28:33;20.87;;;13.30;;
63346;SDS011;49472;49.880;8.650;2022-07-29T05:30:59;13.80;;;12.43;;
63346;SDS011;49472;49.880;8.650;2022-07-29T05:33:25;18.10;;;12.87;;
63346;SDS011;49472;49.880;8.650;2022-07-29T05:35:50;14.57;;;13.02;;
63346;SDS011;49472;49.880;8.650;2022-07-29T05:38:16;14.93;;;13.05;;
63346;SDS011;49472;49.880;8.650;2022-07-29T05:40:41;14.07;;;12.77;;
63346;SDS011;49472;49.880;8.650;2022-07-29T05:43:06;14.15;;;12.68;;
63346;SDS011;49472;49.880;8.650;2022-07-29T05:45:31;20.95;;;13.70;;
63346;SDS011;49472;49.880;8.650;2022-07-29T05:47:57;17.70;;;12.93;;
63346;SDS011;49472;49.880;8.650;2022-07-29T05:50:22;16.38;;;13.13;;
63346;SDS011;49472;49.880;8.650;2022-07-29T05:52:47;15.20;;;12.80;;
63346;SDS011;49472;49.880;8.650;2022-07-29T05:55:12;14.07;;;12.90;;
63346;SDS011;49472;49.880;8.650;2022-07-29T05:57:37;14.48;;;12.98;;
63346;SDS011;49472;49.880;8.650;2022-07-29T06:00:03;15.63;;;13.02;;
63346;SDS011;49472;49.880;8.650;2022-07-29T06:02:28;14.43;;;12.98;;
63346;SDS011;49472;49.880;8.650;2022-07-29T06:04:53;19.83;;;13.13;;
63346;SDS011;49472;49.880;8.650;2022-07-29T06:07:19;14.35;;;12.93;;
63346;SDS011;49472;49.880;8.650;2022-07-29T06:09:44;14.40;;;12.93;;
63346;SDS011;49472;49.880;8.650;2022-07-29T06:12:10;14.00;;;12.80;;
63346;SDS011;49472;49.880;8.650;2022-07-29T06:14:35;14.50;;;13.30;;
63346;SDS011;49472;49.880;8.650;2022-07-29T06:17:00;15.10;;;12.77;;
63346;SDS011;49472;49.880;8.650;2022-07-29T06:19:25;17.77;;;13.95;;
63346;SDS011;49472;49.880;8.650;2022-07-29T06:21:51;13.55;;;12.55;;
63346;SDS011;49472;49.880;8.650;2022-07-29T06:24:16;14.82;;;13.35;;
63346;SDS011;49472;49.880;8.650;2022-07-29T06:26:42;13.63;;;12.52;;
63346;SDS011;49472;49.880;8.650;2022-07-29T06:29:07;14.85;;;13.10;;
63346;SDS011;49472;49.880;8.650;2022-07-29T06:31:33;14.10;;;13.20;;
63346;SDS011;49472;49.880;8.650;2022-07-29T06:33:58;18.25;;;12.55;;
63346;SDS011;49472;49.880;8.650;2022-07-29T06:36:23;14.10;;;13.10;;
63346;SDS011;49472;49.880;8.650;2022-07-29T06:38:48;15.07;;;12.40;;
63346;SDS011;49472;49.880;8.650;2022-07-29T06:41:14;14.45;;;12.80;;
63346;SDS011;49472;49.880;8.650;2022-07-29T06:43:41;14.27;;;13.18;;
63346;SDS011;49472;49.880;8.650;2022-07-29T06:46:09;13.75;;;12.50;;
63346;SDS011;49472;49.880;8.650;2022-07-29T06:48:35;14.35;;;13.25;;
63346;SDS011;49472;49.880;8.650;2022-07-29T06:51:01;14.25;;;12.90;;
63346;SDS011;49472;49.880;8.650;2022-07-29T06:53:26;14.02;;;12.63;;
63346;SDS011;49472;49.880;8.650;2022-07-29T06:55:52;16.02;;;13.13;;
63346;SDS011;49472;49.880;8.650;2022-07-29T06:58:17;13.80;;;12.80;;
63346;SDS011;49472;49.880;8.650;2022-07-29T07:00:45;14.63;;;13.48;;
63346;SDS011;49472;49.880;8.650;2022-07-29T07:03:10;33.83;;;15.18;;
63346;SDS011;49472;49.880;8.650;2022-07-29T07:05:36;14.23;;;13.00;;
63346;SDS011;49472;49.880;8.650;2022-07-29T07:08:01;21.15;;;13.40;;
63346;SDS011;49472;49.880;8.650;2022-07-29T07:10:26;14.45;;;13.23;;
63346;SDS011;49472;49.880;8.650;2022-07-29T07:12:52;14.77;;;13.35;;
63346;SDS011;49472;49.880;8.650;2022-07-29T07:15:17;14.73;;;13.50;;
63346;SDS011;49472;49.880;8.650;2022-07-29T07:17:46;14.70;;;13.35;;
63346;SDS011;49472;49.880;8.650;2022-07-29T07:20:11;15.02;;;13.55;;
63346;SDS011;49472;49.880;8.650;2022-07-29T07:22:37;14.73;;;13.70;;
63346;SDS011;49472;49.880;8.650;2022-07-29T07:25:02;16.45;;;13.63;;
63346;SDS011;49472;49.880;8.650;2022-07-29T07:27:27;13.93;;;12.82;;
63346;SDS011;49472;49.880;8.650;2022-07-29T07:29:53;14.75;;;13.15;;
63346;SDS011;49472;49.880;8.650;2022-07-29T07:32:18;15.00;;;12.85;;
63346;SDS011;49472;49.880;8.650;2022-07-29T07:34:44;14.27;;;13.38;;
63346;SDS011;49472;49.880;8.650;2022-07-29T07:37:09;14.57;;;13.07;;
63346;SDS011;49472;49.880;8.650;2022-07-29T07:39:34;14.80;;;13.55;;
63346;SDS011;49472;49.880;8.650;2022-07-29T07:42:00;15.30;;;14.10;;
63346;SDS011;49472;49.880;8.650;2022-07-29T07:44:26;16.77;;;15.10;;
63346;SDS011;49472;49.880;8.650;2022-07-29T07:46:51;15.05;;;13.88;;
63346;SDS011;49472;49.880;8.650;2022-07-29T07:49:17;15.38;;;13.90;;
63346;SDS011;49472;49.880;8.650;2022-07-29T07:51:42;15.65;;;14.25;;
63346;SDS011;49472;49.880;8.650;2022-07-29T07:54:07;15.98;;;14.38;;
63346;SDS011;49472;49.880;8.650;2022-07-29T07:56:33;14.27;;;13.23;;
63346;SDS011;49472;49.880;8.650;2022-07-29T07:58:58;16.05;;;14.88;;
63346;SDS011;49472;49.880;8.650;2022-07-29T08:01:23;15.88;;;14.48;;
63346;SDS011;49472;49.880;8.650;2022-07-29T08:03:49;14.93;;;13.80;;
63346;SDS011;49472;49.880;8.650;2022-07-29T08:06:14;15.40;;;13.98;;
63346;SDS011;49472;49.880;8.650;2022-07-29T08:08:39;15.70;;;14.50;;
63346;SDS011;49472;49.880;8.650;2022-07-29T08:11:04;15.95;;;14.30;;
63346;SDS011;49472;49.880;8.650;2022-07-29T08:13:31;15.38;;;14.15;;
63346;SDS011;49472;49.880;8.650;2022-07-29T08:15:56;15.57;;;14.23;;
63346;SDS011;49472;49.880;8.650;2022-07-29T08:18:23;16.10;;;14.70;;
63346;SDS011;49472;49.880;8.650;2022-07-29T08:20:48;17.45;;;15.07;;
63346;SDS011;49472;49.880;8.650;2022-07-29T08:23:13;14.65;;;13.60;;
63346;SDS011;49472;49.880;8.650;2022-07-29T08:25:38;15.45;;;14.00;;
63346;SDS011;49472;49.880;8.650;2022-07-29T08:28:04;15.05;;;14.05;;
63346;SDS011;49472;49.880;8.650;2022-07-29T08:30:29;15.20;;;14.20;;
63346;SDS011;49472;49.880;8.650;2022-07-29T08:32:55;14.88;;;13.57;;
63346;SDS011;49472;49.880;8.650;2022-07-29T08:35:21;15.20;;;13.85;;
63346;SDS011;49472;49.880;8.650;2022-07-29T08:37:46;15.40;;;14.13;;
63346;SDS011;49472;49.880;8.650;2022-07-29T08:40:11;15.18;;;13.57;;
63346;SDS011;49472;49.880;8.650;2022-07-29T08:42:36;14.05;;;13.02;;
63346;SDS011;49472;49.880;8.650;2022-07-29T08:45:02;14.95;;;13.55;;
63346;SDS011;49472;49.880;8.650;2022-07-29T08:47:27;15.30;;;14.13;;
63346;SDS011;49472;49.880;8.650;2022-07-29T08:49:53;14.70;;;13.35;;
63346;SDS011;49472;49.880;8.650;2022-07-29T08:52:18;15.93;;;14.40;;
63346;SDS011;49472;49.880;8.650;2022-07-29T08:54:44;14.48;;;13.15;;
63346;SDS011;49472;49.880;8.650;2022-07-29T08:57:12;15.43;;;14.07;;
63346;SDS011;49472;49.880;8.650;2022-07-29T08:59:38;19.13;;;13.85;;
63346;SDS011;49472;49.880;8.650;2022-07-29T09:02:04;19.17;;;14.10;;
63346;SDS011;49472;49.880;8.650;2022-07-29T09:04:33;14.80;;;13.50;;
63346;SDS011;49472;49.880;8.650;2022-07-29T09:07:00;14.65;;;13.60;;
63346;SDS011;49472;49.880;8.650;2022-07-29T09:09:25;14.52;;;12.50;;
63346;SDS011;49472;49.880;8.650;2022-07-29T09:11:51;14.05;;;13.05;;
63346;SDS011;49472;49.880;8.650;2022-07-29T09:14:18;14.43;;;13.43;;
63346;SDS011;49472;49.880;8.650;2022-07-29T09:16:53;14.57;;;13.20;;
63346;SDS011;49472;49.880;8.650;2022-07-29T09:19:37;13.32;;;12.52;;
63346;SDS011;49472;49.880;8.650;2022-07-29T09:22:03;15.55;;;14.20;;
63346;SDS011;49472;49.880;8.650;2022-07-29T09:24:39;14.20;;;12.98;;
63346;SDS011;49472;49.880;8.650;2022-07-29T09:27:09;15.55;;;14.25;;
63346;SDS011;49472;49.880;8.650;2022-07-29T09:29:34;16.75;;;15.50;;
63346;SDS011;49472;49.880;8.650;2022-07-29T09:32:00;14.73;;;13.70;;
63346;SDS011;49472;49.880;8.650;2022-07-29T09:34:26;14.85;;;13.45;;
63346;SDS011;49472;49.880;8.650;2022-07-29T09:36:53;15.20;;;13.90;;
63346;SDS011;49472;49.880;8.650;2022-07-29T09:39:29;14.48;;;13.43;;
63346;SDS011;49472;49.880;8.650;2022-07-29T09:41:56;16.08;;;14.65;;
63346;SDS011;49472;49.880;8.650;2022-07-29T09:44:22;15.35;;;14.15;;
63346;SDS011;49472;49.880;8.650;2022-07-29T09:46:55;15.00;;;13.65;;
63346;SDS011;49472;49.880;8.650;2022-07-29T09:49:20;14.52;;;13.63;;
63346;SDS011;49472;49.880;8.650;2022-07-29T09:51:45;15.75;;;14.48;;
63346;SDS011;49472;49.880;8.650;2022-07-29T09:54:26;15.63;;;14.27;;
63346;SDS011;49472;49.880;8.650;2022-07-29T09:56:52;14.23;;;13.23;;
63346;SDS011;49472;49.880;8.650;2022-07-29T09:59:18;14.90;;;13.70;;
63346;SDS011;49472;49.880;8.650;2022-07-29T10:01:45;17.45;;;14.07;;
63346;SDS011;49472;49.880;8.650;2022-07-29T10:04:10;15.73;;;14.20;;
63346;SDS011;49472;49.880;8.650;2022-07-29T10:06:37;16.95;;;14.15;;
63346;SDS011;49472;49.880;8.650;2022-07-29T10:09:19;14.82;;;13.68;;
63346;SDS011;49472;49.880;8.650;2022-07-29T10:11:47;15.23;;;14.00;;
63346;SDS011;49472;49.880;8.650;2022-07-29T10:14:27;14.80;;;13.73;;
63346;SDS011;49472;49.880;8.650;2022-07-29T10:16:52;18.58;;;14.55;;
63346;SDS011;49472;49.880;8.650;2022-07-29T10:19:18;15.48;;;14.15;;
63346;SDS011;49472;49.880;8.650;2022-07-29T10:21:44;14.38;;;13.48;;
63346;SDS011;49472;49.880;8.650;2022-07-29T10:24:09;14.90;;;14.00;;
63346;SDS011;49472;49.880;8.650;2022-07-29T10:26:35;16.33;;;14.68;;
63346;SDS011;49472;49.880;8.650;2022-07-29T10:29:02;15.52;;;13.98;;
63346;SDS011;49472;49.880;8.650;2022-07-29T10:31:34;16.73;;;13.68;;
63346;SDS011;49472;49.880;8.650;2022-07-29T10:41:53;13.90;;;13.10;;
63346;SDS011;49472;49.880;8.650;2022-07-29T10:44:21;14.25;;;13.25;;
63346;SDS011;49472;49.880;8.650;2022-07-29T10:46:47;14.95;;;13.68;;
63346;SDS011;49472;49.880;8.650;2022-07-29T10:52:01;14.45;;;13.45;;
63346;SDS011;49472;49.880;8.650;2022-07-29T10:59:38;14.95;;;13.60;;
63346;SDS011;49472;49.880;8.650;2022-07-29T11:02:09;15.70;;;13.93;;
63346;SDS011;49472;49.880;8.650;2022-07-29T11:07:13;14.20;;;12.87;;
63346;SDS011;49472;49.880;8.650;2022-07-29T11:09:41;13.13;;;12.32;;
63346;SDS011;49472;49.880;8.650;2022-07-29T11:15:00;15.32;;;14.18;;
63346;SDS011;49472;49.880;8.650;2022-07-29T11:17:27;14.73;;;13.63;;
63346;SDS011;49472;49.880;8.650;2022-07-29T11:20:30;14.40;;;13.40;;
63346;SDS011;49472;49.880;8.650;2022-07-29T11:22:38;14.90;;;13.45;;
63346;SDS011;49472;49.880;8.650;2022-07-29T11:25:15;13.00;;;12.05;;
63346;SDS011;49472;49.880;8.650;2022-07-29T11:27:41;13.43;;;12.45;;
63346;SDS011;49472;49.880;8.650;2022-07-29T11:30:06;13.23;;;12.32;;
63346;SDS011;49472;49.880;8.650;2022-07-29T11:32:39;13.63;;;12.82;;
63346;SDS011;49472;49.880;8.650;2022-07-29T11:35:12;14.00;;;13.00;;
63346;SDS011;49472;49.880;8.650;2022-07-29T11:37:38;13.93;;;12.63;;
63346;SDS011;49472;49.880;8.650;2022-07-29T11:44:57;14.05;;;12.85;;
63346;SDS011;49472;49.880;8.650;2022-07-29T11:47:23;16.55;;;12.77;;
63346;SDS011;49472;49.880;8.650;2022-07-29T11:49:49;16.25;;;13.02;;
63346;SDS011;49472;49.880;8.650;2022-07-29T11:52:16;14.15;;;12.65;;
63346;SDS011;49472;49.880;8.650;2022-07-29T11:54:41;13.68;;;12.48;;
63346;SDS011;49472;49.880;8.650;2022-07-29T11:57:07;12.90;;;12.00;;
63346;SDS011;49472;49.880;8.650;2022-07-29T11:59:37;16.77;;;12.48;;
63346;SDS011;49472;49.880;8.650;2022-07-29T12:02:03;13.23;;;12.20;;
63346;SDS011;49472;49.880;8.650;2022-07-29T12:04:28;13.27;;;12.10;;
63346;SDS011;49472;49.880;8.650;2022-07-29T12:06:54;17.45;;;12.07;;
63346;SDS011;49472;49.880;8.650;2022-07-29T12:09:20;13.27;;;12.10;;
63346;SDS011;49472;49.880;8.650;2022-07-29T12:11:46;12.20;;;11.10;;
63346;SDS011;49472;49.880;8.650;2022-07-29T12:17:25;14.05;;;12.68;;
63346;SDS011;49472;49.880;8.650;2022-07-29T12:19:51;11.75;;;11.05;;
63346;SDS011;49472;49.880;8.650;2022-07-29T12:22:24;11.80;;;11.10;;
63346;SDS011;49472;49.880;8.650;2022-07-29T12:24:49;12.73;;;11.48;;
63346;SDS011;49472;49.880;8.650;2022-07-29T12:27:16;12.70;;;11.50;;
63346;SDS011;49472;49.880;8.650;2022-07-29T12:29:42;12.07;;;11.27;;
63346;SDS011;49472;49.880;8.650;2022-07-29T12:32:07;11.88;;;10.82;;
63346;SDS011;49472;49.880;8.650;2022-07-29T12:34:32;13.23;;;11.88;;
63346;SDS011;49472;49.880;8.650;2022-07-29T12:36:58;11.98;;;10.90;;
63346;SDS011;49472;49.880;8.650;2022-07-29T12:39:23;12.63;;;11.52;;
63346;SDS011;49472;49.880;8.650;2022-07-29T12:41:51;11.63;;;10.93;;
63346;SDS011;49472;49.880;8.650;2022-07-29T12:44:16;11.73;;;10.80;;
63346;SDS011;49472;49.880;8.650;2022-07-29T12:46:41;11.43;;;10.70;;
63346;SDS011;49472;49.880;8.650;2022-07-29T12:49:06;12.30;;;11.13;;
63346;SDS011;49472;49.880;8.650;2022-07-29T12:51:33;15.55;;;11.10;;
63346;SDS011;49472;49.880;8.650;2022-07-29T12:56:33;11.90;;;11.00;;
63346;SDS011;49472;49.880;8.650;2022-07-29T12:58:58;12.52;;;10.63;;
63346;SDS011;49472;49.880;8.650;2022-07-29T13:01:24;11.77;;;10.57;;
63346;SDS011;49472;49.880;8.650;2022-07-29T13:09:06;10.57;;;9.77;;
63346;SDS011;49472;49.880;8.650;2022-07-29T13:11:37;10.25;;;9.40;;
63346;SDS011;49472;49.880;8.650;2022-07-29T13:14:03;10.27;;;9.43;;
63346;SDS011;49472;49.880;8.650;2022-07-29T13:16:28;10.75;;;9.85;;
63346;SDS011;49472;49.880;8.650;2022-07-29T13:19:04;9.52;;;9.00;;
63346;SDS011;49472;49.880;8.650;2022-07-29T13:21:30;9.98;;;9.48;;
63346;SDS011;49472;49.880;8.650;2022-07-29T13:23:55;8.40;;;7.93;;
63346;SDS011;49472;49.880;8.650;2022-07-29T13:26:20;9.00;;;8.50;;
63346;SDS011;49472;49.880;8.650;2022-07-29T13:28:45;9.02;;;8.63;;
63346;SDS011;49472;49.880;8.650;2022-07-29T13:31:11;9.00;;;8.30;;
63346;SDS011;49472;49.880;8.650;2022-07-29T13:33:36;9.50;;;8.70;;
63346;SDS011;49472;49.880;8.650;2022-07-29T13:36:01;8.87;;;8.37;;
63346;SDS011;49472;49.880;8.650;2022-07-29T13:38:26;8.93;;;8.20;;
63346;SDS011;49472;49.880;8.650;2022-07-29T13:40:52;9.20;;;8.18;;
63346;SDS011;49472;49.880;8.650;2022-07-29T13:43:17;8.10;;;7.80;;
63346;SDS011;49472;49.880;8.650;2022-07-29T13:45:42;9.37;;;8.67;;
63346;SDS011;49472;49.880;8.650;2022-07-29T13:48:07;9.03;;;8.50;;
63346;SDS011;49472;49.880;8.650;2022-07-29T13:50:33;11.90;;;8.73;;
63346;SDS011;49472;49.880;8.650;2022-07-29T13:52:58;9.70;;;8.70;;
63346;SDS011;49472;49.880;8.650;2022-07-29T13:55:23;9.48;;;8.85;;
63346;SDS011;49472;49.880;8.650;2022-07-29T13:57:49;9.40;;;8.70;;
63346;SDS011;49472;49.880;8.650;2022-07-29T14:00:14;9.55;;;9.05;;
63346;SDS011;49472;49.880;8.650;2022-07-29T14:02:40;9.77;;;9.27;;
63346;SDS011;49472;49.880;8.650;2022-07-29T14:05:06;10.80;;;10.05;;
63346;SDS011;49472;49.880;8.650;2022-07-29T14:07:31;10.45;;;9.85;;
63346;SDS011;49472;49.880;8.650;2022-07-29T14:09:56;10.75;;;10.15;;
63346;SDS011;49472;49.880;8.650;2022-07-29T14:12:22;13.95;;;10.15;;
63346;SDS011;49472;49.880;8.650;2022-07-29T14:14:47;11.55;;;10.40;;
63346;SDS011;49472;49.880;8.650;2022-07-29T14:17:12;11.40;;;10.43;;
63346;SDS011;49472;49.880;8.650;2022-07-29T14:19:38;11.32;;;10.27;;
63346;SDS011;49472;49.880;8.650;2022-07-29T14:22:04;12.15;;;11.15;;
63346;SDS011;49472;49.880;8.650;2022-07-29T14:24:29;12.82;;;11.35;;
63346;SDS011;49472;49.880;8.650;2022-07-29T14:26:54;11.93;;;11.07;;
63346;SDS011;49472;49.880;8.650;2022-07-29T14:29:20;12.15;;;11.32;;
63346;SDS011;49472;49.880;8.650;2022-07-29T14:31:45;11.40;;;10.73;;
63346;SDS011;49472;49.880;8.650;2022-07-29T14:34:10;20.63;;;11.25;;
63346;SDS011;49472;49.880;8.650;2022-07-29T14:36:36;11.57;;;10.77;;
63346;SDS011;49472;49.880;8.650;2022-07-29T14:39:01;14.35;;;12.10;;
63346;SDS011;49472;49.880;8.650;2022-07-29T14:41:26;12.25;;;11.45;;
63346;SDS011;49472;49.880;8.650;2022-07-29T14:43:53;12.90;;;11.63;;
63346;SDS011;49472;49.880;8.650;2022-07-29T14:46:19;14.00;;;11.45;;
63346;SDS011;49472;49.880;8.650;2022-07-29T14:48:45;12.93;;;11.60;;
63346;SDS011;49472;49.880;8.650;2022-07-29T14:51:10;12.07;;;11.02;;
63346;SDS011;49472;49.880;8.650;2022-07-29T14:53:36;17.63;;;12.00;;
63346;SDS011;49472;49.880;8.650;2022-07-29T14:56:01;12.73;;;11.93;;
63346;SDS011;49472;49.880;8.650;2022-07-29T14:58:27;12.48;;;11.38;;
63346;SDS011;49472;49.880;8.650;2022-07-29T15:00:52;12.43;;;11.55;;
63346;SDS011;49472;49.880;8.650;2022-07-29T15:03:19;12.50;;;11.80;;
63346;SDS011;49472;49.880;8.650;2022-07-29T15:05:44;12.50;;;11.70;;
63346;SDS011;49472;49.880;8.650;2022-07-29T15:08:10;13.02;;;11.95;;
63346;SDS011;49472;49.880;8.650;2022-07-29T15:10:35;13.18;;;12.02;;